createdAt,value
2018-05-29T00:04:48.075Z,13.83
2018-05-29T00:09:51.349Z,18.33
2018-05-29T00:14:54.607Z,18.10
2018-05-29T00:19:57.955Z,18.30
2018-05-29T00:25:01.211Z,19.57
2018-05-29T00:30:04.470Z,17.10
2018-05-29T00:35:07.727Z,21.30
2018-05-29T00:40:11.009Z,22.67
2018-05-29T00:45:15.019Z,22.77
2018-05-29T00:50:18.279Z,21.40
2018-05-29T00:55:33.160Z,17.60
2018-05-29T01:00:36.427Z,24.27
2018-05-29T01:05:40.464Z,24.63
2018-05-29T01:10:43.728Z,25.83
2018-05-29T01:15:46.991Z,26.00
2018-05-29T01:20:50.258Z,21.37
2018-05-29T01:25:53.519Z,27.20
2018-05-29T01:30:56.795Z,26.83
2018-05-29T01:36:00.059Z,22.27
2018-05-29T01:41:03.318Z,18.20
2018-05-29T01:46:07.350Z,24.43
2018-05-29T01:51:10.610Z,26.63
2018-05-29T01:56:13.872Z,26.63
2018-05-29T02:01:17.891Z,33.57
2018-05-29T02:06:21.174Z,26.93
2018-05-29T02:11:24.478Z,30.70
2018-05-29T02:16:27.734Z,32.00
2018-05-29T02:21:30.998Z,30.40
2018-05-29T02:26:34.258Z,29.37
2018-05-29T02:31:37.524Z,28.47
2018-05-29T02:36:40.787Z,29.20
2018-05-29T02:41:44.068Z,21.20
2018-05-29T02:46:48.074Z,26.47
2018-05-29T02:51:52.111Z,29.60
2018-05-29T02:56:55.376Z,33.13
2018-05-29T03:01:58.655Z,35.53
2018-05-29T03:07:01.924Z,35.63
2018-05-29T03:12:05.212Z,34.13
2018-05-29T03:17:08.478Z,33.67
2018-05-29T03:22:11.763Z,34.33
2018-05-29T03:27:15.791Z,35.77
2018-05-29T03:32:19.051Z,33.17
2018-05-29T03:37:22.323Z,31.17
2018-05-29T03:42:25.606Z,37.53
2018-05-29T03:47:29.634Z,31.87
2018-05-29T03:52:32.915Z,32.47
2018-05-29T03:57:36.177Z,25.70
2018-05-29T04:02:39.447Z,23.30
2018-05-29T04:07:43.485Z,27.73
2018-05-29T04:12:46.766Z,34.87
2018-05-29T04:17:50.030Z,27.13
2018-05-29T04:22:53.299Z,29.27
2018-05-29T04:27:58.155Z,31.63
2018-05-29T04:33:01.433Z,31.27
2018-05-29T04:38:04.681Z,32.67
2018-05-29T04:43:08.038Z,17.67
2018-05-29T04:48:11.319Z,30.80
2018-05-29T04:53:14.588Z,28.07
2018-05-29T04:58:18.615Z,29.53
2018-05-29T05:03:22.767Z,34.00
2018-05-29T05:08:26.052Z,26.10
2018-05-29T05:13:29.327Z,30.33
2018-05-29T05:18:32.618Z,26.97
2018-05-29T05:23:35.916Z,26.33
2018-05-29T05:28:39.172Z,21.20
2018-05-29T05:33:42.436Z,22.47
2018-05-29T05:38:45.716Z,29.93
2018-05-29T05:43:49.067Z,17.40
2018-05-29T05:48:52.343Z,23.57
2018-05-29T05:53:55.631Z,26.17
2018-05-29T05:58:58.899Z,21.93
2018-05-29T06:04:02.160Z,22.77
2018-05-29T06:09:05.443Z,28.63
2018-05-29T06:14:08.739Z,18.87
2018-05-29T06:19:13.023Z,26.40
2018-05-29T06:24:16.322Z,18.00
2018-05-29T06:29:19.550Z,22.17
2018-05-29T06:34:23.592Z,21.00
2018-05-29T06:39:26.859Z,19.07
2018-05-29T06:44:30.163Z,17.60
2018-05-29T06:49:33.436Z,16.77
2018-05-29T06:54:36.715Z,14.83
2018-05-29T06:59:39.982Z,12.27
2018-05-29T07:04:44.603Z,12.43
2018-05-29T07:09:48.791Z,11.13
2018-05-29T07:14:52.051Z,12.27
2018-05-29T07:19:55.359Z,10.57
2018-05-29T07:24:59.571Z,12.40
2018-05-29T07:30:02.827Z,9.10
2018-05-29T07:35:06.099Z,8.93
2018-05-29T07:40:09.351Z,8.80
2018-05-29T07:45:12.680Z,8.33
2018-05-29T07:50:15.925Z,8.73
2018-05-29T07:55:19.203Z,12.27
2018-05-29T08:00:22.470Z,10.27
2018-05-29T08:05:25.727Z,8.77
2018-05-29T08:10:28.989Z,13.23
2018-05-29T08:15:32.298Z,12.43
2018-05-29T08:20:35.580Z,11.93
2018-05-29T08:25:38.855Z,10.40
2018-05-29T08:30:42.123Z,11.40
2018-05-29T08:35:45.389Z,13.17
2018-05-29T08:40:48.652Z,10.07
2018-05-29T08:45:53.146Z,12.80
2018-05-29T08:50:56.416Z,9.07
2018-05-29T08:55:59.681Z,8.80
2018-05-29T09:01:02.935Z,10.57
2018-05-29T09:06:07.099Z,9.13
2018-05-29T09:11:10.357Z,10.33
2018-05-29T09:16:13.621Z,9.80
2018-05-29T09:21:16.872Z,9.27
2018-05-29T09:26:20.143Z,9.20
2018-05-29T09:31:23.432Z,8.47
2018-05-29T09:36:26.684Z,9.70
2018-05-29T09:41:29.978Z,9.20
2018-05-29T09:46:33.210Z,9.57
2018-05-29T09:51:36.463Z,7.60
2018-05-29T09:56:40.671Z,8.43
2018-05-29T10:01:43.910Z,7.60
2018-05-29T10:06:47.158Z,9.63
2018-05-29T10:11:50.421Z,10.83
2018-05-29T10:16:53.678Z,10.27
2018-05-29T10:21:56.951Z,11.43
2018-05-29T10:27:00.213Z,10.60
2018-05-29T10:32:03.482Z,10.17
2018-05-29T10:37:07.538Z,9.23
2018-05-29T10:42:10.795Z,9.93
2018-05-29T10:47:14.055Z,9.33
2018-05-29T10:52:18.216Z,9.00
2018-05-29T10:57:21.463Z,10.67
2018-05-29T11:02:24.714Z,9.53
2018-05-29T11:07:28.020Z,10.40
2018-05-29T11:12:31.326Z,8.97
2018-05-29T11:17:34.527Z,9.07
2018-05-29T11:22:37.775Z,9.67
2018-05-29T11:27:41.032Z,9.23
2018-05-29T11:32:44.282Z,9.97
2018-05-29T11:37:47.522Z,8.83
2018-05-29T11:42:51.539Z,8.97
2018-05-29T11:47:54.844Z,10.63
2018-05-29T11:52:58.863Z,9.70
2018-05-29T11:58:02.116Z,8.93
2018-05-29T12:03:05.379Z,12.30
2018-05-29T12:08:09.412Z,9.53
2018-05-29T12:13:12.658Z,9.37
2018-05-29T12:18:15.911Z,9.73
2018-05-29T12:23:19.160Z,10.63
2018-05-29T12:28:22.413Z,10.67
2018-05-29T12:33:25.662Z,10.30
2018-05-29T12:38:28.919Z,11.07
2018-05-29T12:43:33.071Z,12.00
2018-05-29T12:48:36.444Z,11.47
2018-05-29T12:53:39.698Z,12.37
2018-05-29T12:58:42.955Z,10.33
2018-05-29T13:03:46.230Z,12.57
2018-05-29T13:08:49.463Z,10.80
2018-05-29T13:13:52.724Z,9.97
2018-05-29T13:18:55.971Z,10.60
2018-05-29T13:23:59.242Z,9.33
2018-05-29T13:29:02.495Z,11.00
2018-05-29T13:34:05.771Z,10.73
2018-05-29T13:39:09.096Z,11.33
2018-05-29T13:44:12.336Z,11.30
2018-05-29T13:49:15.685Z,11.27
2018-05-29T13:54:18.884Z,12.77
2018-05-29T13:59:22.148Z,16.67
2018-05-29T14:04:25.415Z,21.50
2018-05-29T14:09:28.666Z,20.80
2018-05-29T14:14:31.948Z,23.40
2018-05-29T14:19:35.972Z,25.37
2018-05-29T14:24:39.996Z,26.13
2018-05-29T14:29:44.015Z,30.57
2018-05-29T14:34:47.291Z,19.50
2018-05-29T14:39:50.544Z,20.83
2018-05-29T14:44:53.807Z,18.57
2018-05-29T14:49:57.191Z,20.93
2018-05-29T14:55:00.454Z,21.20
2018-05-29T15:00:03.735Z,20.13
2018-05-29T15:05:07.011Z,16.17
2018-05-29T15:10:10.267Z,18.67
2018-05-29T15:15:13.606Z,16.70
2018-05-29T15:20:16.871Z,14.90
2018-05-29T15:25:20.156Z,14.13
2018-05-29T15:30:23.417Z,11.83
2018-05-29T15:35:27.452Z,12.67
2018-05-29T15:40:30.711Z,14.57
2018-05-29T15:45:33.966Z,15.83
2018-05-29T15:50:37.474Z,10.87
2018-05-29T15:55:40.747Z,15.23
2018-05-29T16:00:44.010Z,18.10
2018-05-29T16:05:47.303Z,20.40
2018-05-29T16:10:50.835Z,13.97
2018-05-29T16:15:54.103Z,12.03
2018-05-29T16:20:57.394Z,14.70
2018-05-29T16:26:00.652Z,14.23
2018-05-29T16:31:03.923Z,14.60
2018-05-29T16:36:07.204Z,13.93
2018-05-29T16:41:10.483Z,10.10
2018-05-29T16:46:13.756Z,13.87
2018-05-29T16:51:17.047Z,9.93
2018-05-29T16:56:20.312Z,10.17
2018-05-29T17:01:23.609Z,9.60
2018-05-29T17:06:26.856Z,13.23
2018-05-29T17:11:30.147Z,14.97
2018-05-29T17:16:33.415Z,24.13
2018-05-29T17:21:36.724Z,29.27
2018-05-29T17:26:40.019Z,30.60
2018-05-29T17:31:43.301Z,28.27
2018-05-29T17:36:46.570Z,20.20
2018-05-29T17:41:50.620Z,21.17
2018-05-29T17:46:53.900Z,21.70
2018-05-29T17:51:57.178Z,17.03
2018-05-29T17:57:01.216Z,13.77
2018-05-29T18:02:05.262Z,14.17
2018-05-29T18:07:08.510Z,14.87
2018-05-29T18:12:11.770Z,17.73
2018-05-29T18:17:15.812Z,17.37
2018-05-29T18:22:19.096Z,23.37
2018-05-29T18:27:23.113Z,16.53
2018-05-29T18:32:26.395Z,22.13
2018-05-29T18:37:29.675Z,21.67
2018-05-29T18:42:32.959Z,24.20
2018-05-29T18:47:37.007Z,29.57
2018-05-29T18:52:40.347Z,25.93
2018-05-29T18:57:43.602Z,15.23
2018-05-29T19:02:47.627Z,32.20
2018-05-29T19:07:51.655Z,25.73
2018-05-29T19:12:55.689Z,22.07
2018-05-29T19:17:58.975Z,21.43
2018-05-29T19:23:03.096Z,29.07
2018-05-29T19:28:06.335Z,24.27
2018-05-29T19:33:09.611Z,33.37
2018-05-29T19:38:12.891Z,22.70
2018-05-29T19:43:16.152Z,24.87
2018-05-29T19:48:19.423Z,15.97
2018-05-29T19:53:22.766Z,23.90
2018-05-29T19:58:26.800Z,24.50
2018-05-29T20:03:30.845Z,30.60
2018-05-29T20:08:34.102Z,27.23
2018-05-29T20:13:37.422Z,19.93
2018-05-29T20:18:40.691Z,28.90
2018-05-29T20:23:43.959Z,22.43
2018-05-29T20:28:47.231Z,23.57
2018-05-29T20:33:50.504Z,27.47
2018-05-29T20:38:53.766Z,24.77
2018-05-29T20:43:57.917Z,15.07
2018-05-29T20:49:01.195Z,13.70
2018-05-29T20:54:05.279Z,11.53
2018-05-29T20:59:08.542Z,14.07
2018-05-29T21:04:11.892Z,11.67
2018-05-29T21:09:15.160Z,17.27
2018-05-29T21:14:18.468Z,10.37
2018-05-29T21:19:21.739Z,11.57
2018-05-29T21:24:25.091Z,14.00
2018-05-29T21:29:29.127Z,19.27
2018-05-29T21:34:32.435Z,13.53
2018-05-29T21:39:36.449Z,11.30
2018-05-29T21:44:40.473Z,10.03
2018-05-29T21:49:44.595Z,10.13
2018-05-29T21:54:47.948Z,10.03
2018-05-29T21:59:51.346Z,6.13
2018-05-29T22:04:54.669Z,10.80
2018-05-29T22:09:57.943Z,12.90
2018-05-29T22:15:01.981Z,13.30
2018-05-29T22:20:05.239Z,11.83
2018-05-29T22:25:08.499Z,8.60
2018-05-29T22:30:12.520Z,13.03
2018-05-29T22:35:16.531Z,9.73
2018-05-29T22:40:20.563Z,11.13
2018-05-29T22:45:23.820Z,9.13
2018-05-29T22:50:27.104Z,5.93
2018-05-29T22:55:30.455Z,7.80
2018-05-29T23:00:33.702Z,7.87
2018-05-29T23:05:37.732Z,8.03
2018-05-29T23:10:40.992Z,8.97
2018-05-29T23:15:44.246Z,11.27
2018-05-29T23:20:48.352Z,11.37
2018-05-29T23:25:51.665Z,8.80
2018-05-29T23:30:54.920Z,13.90
2018-05-29T23:35:58.172Z,13.70
2018-05-29T23:41:01.428Z,21.03
2018-05-29T23:46:04.699Z,12.50
2018-05-29T23:51:07.964Z,14.87
2018-05-29T23:56:11.227Z,9.77
